Airfield :







YOU CAN JOIN US ON...

 
LOGIN :

Register | Disclaimer

   EN    FR    IT 

 









Legend :    VFR   Marginal VFR   IFR   Intensive IFR   Very Intensive IFR
Visi :
Ceiling :
>= 8 km
>= 3000ft
5 to 8 km
1000 to 3000 ft
1500m to 5 km
500 to 1000 ft
800 to 1500m
200 to 500 ft
< 800m
< 200 ft
Symbols :   Thunderstorms  Fog  Heavy snow  Heavy precipitations  Wind > 20 kt







- Airport Elevation : 489 ft


KHUL - Houlton International

CURRENT METAR :
  • 191153Z AUTO 00000KT 10SM SCT070 OVC090 07/05 A3011 RMK AO2 SLP201 70001 T00720050 10072 20011 51008

EXPIRED METARs :
  • 191053Z AUTO 00000KT 10SM OVC100 04/04 A3011 RMK AO2 SLP200 T00440039
  • 190953Z AUTO 00000KT 10SM SCT120 03/03 A3010 RMK AO2 SLP198 T00330028

TAF KHUL
Valid from the 19 at 12:00 until the 20 at 12:00 UTC


191120Z 1912/2012 00000KT P6SM VCSH BKN110
FM191700 22006KT P6SM VCSH OVC027
FM192000 18005KT P6SM -RA OVC013
FM200200 15006KT P6SM -RA OVC009
FM200500 15008KT 5SM -RA OVC007
FM201100 16006KT 5SM -RADZ OVC004
KZBW FIR / North America



MET'MAP, your aeronautical weather chart ! - Copyright ORBIFLY December 2007 - Disclaimer

ORBIFLY MET'MAP TEAM :

Programming & Development : Alexandra Zaïnal
Concept & Development : Baudouin d'Aumeries
Co-Development & Prog : Marc-Olivier Méhu
Technical & hardware support : Manuel Goepfert

Contact : metmap@orbifly.com




SOURCES & CREDITS :

   NOAA